createdAt,value
2023-08-22T00:01:10.403Z,19.73
2023-08-22T00:03:37.239Z,19.66
2023-08-22T00:06:04.674Z,19.61
2023-08-22T00:08:31.399Z,19.61
2023-08-22T00:11:00.239Z,19.62
2023-08-22T00:13:27.308Z,19.58
2023-08-22T00:16:00.034Z,19.52
2023-08-22T00:18:27.321Z,19.50
2023-08-22T00:20:54.415Z,19.47
2023-08-22T00:23:21.250Z,19.41
2023-08-22T00:25:48.072Z,19.35
2023-08-22T00:28:15.461Z,19.23
2023-08-22T00:30:42.411Z,19.20
2023-08-22T00:33:09.264Z,19.23
2023-08-22T00:35:35.932Z,19.13
2023-08-22T00:38:02.719Z,19.10
2023-08-22T00:40:29.427Z,19.04
2023-08-22T00:42:56.105Z,19.03
2023-08-22T00:45:22.830Z,18.99
2023-08-22T00:47:49.596Z,18.94
2023-08-22T00:50:17.125Z,18.90
2023-08-22T00:52:43.825Z,18.90
2023-08-22T00:55:10.501Z,18.87
2023-08-22T00:57:37.995Z,18.80
2023-08-22T01:00:07.373Z,18.82
2023-08-22T01:02:34.245Z,18.77
2023-08-22T01:05:01.457Z,18.77
2023-08-22T01:07:43.269Z,18.77
2023-08-22T01:10:21.492Z,18.79
2023-08-22T01:12:57.351Z,18.72
2023-08-22T01:15:28.112Z,18.72
2023-08-22T01:17:58.459Z,18.67
2023-08-22T01:20:26.364Z,18.67
2023-08-22T01:22:53.045Z,18.67
2023-08-22T01:25:20.084Z,18.66
2023-08-22T01:27:59.667Z,18.66
2023-08-22T01:30:48.765Z,18.62
2023-08-22T01:33:39.443Z,18.60
2023-08-22T01:36:07.495Z,18.58
2023-08-22T01:38:34.225Z,18.62
2023-08-22T01:41:00.949Z,18.55
2023-08-22T01:43:27.839Z,18.51
2023-08-22T01:45:54.809Z,18.46
2023-08-22T01:48:21.511Z,18.45
2023-08-22T01:50:48.318Z,18.41
2023-08-22T01:53:14.985Z,18.42
2023-08-22T01:55:41.708Z,18.42
2023-08-22T01:58:12.411Z,18.42
2023-08-22T02:00:40.002Z,18.41
2023-08-22T02:03:07.410Z,18.39
2023-08-22T02:05:34.213Z,18.34
2023-08-22T02:08:01.308Z,18.32
2023-08-22T02:10:27.980Z,18.27
2023-08-22T02:12:54.795Z,18.29
2023-08-22T02:15:22.372Z,18.29
2023-08-22T02:17:49.652Z,18.27
2023-08-22T02:20:16.472Z,18.25
2023-08-22T02:22:43.203Z,18.24
2023-08-22T02:25:10.086Z,18.18
2023-08-22T02:27:38.875Z,18.15
2023-08-22T02:30:09.312Z,18.14
2023-08-22T02:32:36.099Z,18.17
2023-08-22T02:35:04.472Z,18.21
2023-08-22T02:37:31.198Z,18.17
2023-08-22T02:39:57.920Z,18.22
2023-08-22T02:42:24.648Z,18.22
2023-08-22T02:44:51.345Z,18.19
2023-08-22T02:47:19.439Z,18.19
2023-08-22T02:49:46.242Z,18.24
2023-08-22T02:52:12.957Z,18.24
2023-08-22T02:54:39.679Z,18.21
2023-08-22T02:57:06.432Z,18.17
2023-08-22T02:59:33.148Z,18.15
2023-08-22T03:01:59.885Z,18.19
2023-08-22T03:04:26.821Z,18.17
2023-08-22T03:06:53.616Z,18.14
2023-08-22T03:09:20.333Z,18.18
2023-08-22T03:11:47.069Z,18.27
2023-08-22T03:14:13.835Z,18.27
2023-08-22T03:16:40.716Z,18.31
2023-08-22T03:19:07.507Z,18.32
2023-08-22T03:21:34.204Z,18.37
2023-08-22T03:24:00.880Z,18.42
2023-08-22T03:26:27.715Z,18.49
2023-08-22T03:28:54.436Z,18.52
2023-08-22T03:31:23.387Z,18.63
2023-08-22T03:33:50.189Z,18.73
2023-08-22T03:36:16.849Z,18.79
2023-08-22T03:38:43.609Z,18.85
2023-08-22T03:41:10.453Z,18.83
2023-08-22T03:43:37.135Z,18.85
2023-08-22T03:46:03.837Z,18.83
2023-08-22T03:48:30.716Z,18.80
2023-08-22T03:50:57.484Z,18.79
2023-08-22T03:53:24.220Z,18.76
2023-08-22T03:55:50.936Z,18.70
2023-08-22T03:58:17.660Z,18.73
2023-08-22T04:00:44.479Z,18.70
2023-08-22T04:03:11.393Z,18.66
2023-08-22T04:05:38.286Z,18.63
2023-08-22T04:08:05.617Z,18.66
2023-08-22T04:10:32.407Z,18.66
2023-08-22T04:12:59.096Z,18.72
2023-08-22T04:15:25.790Z,18.72
2023-08-22T04:17:52.544Z,18.73
2023-08-22T04:20:19.221Z,18.72
2023-08-22T04:22:45.907Z,18.70
2023-08-22T04:25:12.686Z,18.72
2023-08-22T04:27:40.063Z,18.79
2023-08-22T04:30:07.499Z,18.79
2023-08-22T04:32:34.344Z,18.80
2023-08-22T04:35:01.096Z,18.87
2023-08-22T04:37:28.284Z,18.93
2023-08-22T04:39:55.099Z,18.94
2023-08-22T04:42:21.848Z,19.02
2023-08-22T04:44:48.581Z,19.07
2023-08-22T04:47:15.299Z,19.10
2023-08-22T04:49:41.981Z,19.13
2023-08-22T04:52:08.761Z,19.21
2023-08-22T04:54:35.662Z,19.27
2023-08-22T04:57:02.366Z,19.35
2023-08-22T04:59:29.091Z,19.51
2023-08-22T05:01:55.965Z,19.65
2023-08-22T05:04:22.757Z,19.82
2023-08-22T05:06:49.472Z,20.06
2023-08-22T05:09:16.387Z,20.29
2023-08-22T05:11:43.192Z,20.52
2023-08-22T05:14:10.449Z,20.77
2023-08-22T05:16:37.438Z,20.99
2023-08-22T05:19:05.047Z,21.20
2023-08-22T05:21:31.798Z,21.40
2023-08-22T05:23:58.600Z,21.67
2023-08-22T05:26:25.470Z,21.91
2023-08-22T05:28:52.137Z,22.16
2023-08-22T05:31:22.934Z,22.42
2023-08-22T05:33:50.060Z,22.69
2023-08-22T05:36:16.875Z,23.01
2023-08-22T05:38:43.627Z,23.34
2023-08-22T05:41:10.405Z,23.56
2023-08-22T05:43:37.266Z,23.82
2023-08-22T05:46:04.241Z,24.06
2023-08-22T05:48:31.290Z,24.28
2023-08-22T05:50:59.348Z,24.47
2023-08-22T05:53:26.127Z,24.69
2023-08-22T05:55:53.002Z,24.95
2023-08-22T05:58:19.857Z,25.15
2023-08-22T06:00:46.652Z,25.38
2023-08-22T06:03:13.651Z,25.60
2023-08-22T06:05:41.446Z,25.81
2023-08-22T06:08:08.043Z,25.96
2023-08-22T06:10:34.828Z,26.12
2023-08-22T06:13:01.524Z,26.26
2023-08-22T06:15:28.214Z,26.36
2023-08-22T06:17:55.009Z,26.53
2023-08-22T06:20:21.755Z,26.65
2023-08-22T06:22:48.469Z,26.81
2023-08-22T06:25:15.327Z,26.91
2023-08-22T06:27:42.559Z,27.04
2023-08-22T06:30:09.825Z,27.16
2023-08-22T06:32:36.587Z,27.31
2023-08-22T06:35:05.298Z,27.49
2023-08-22T06:37:32.195Z,27.62
2023-08-22T06:39:58.942Z,27.49
2023-08-22T06:42:25.873Z,27.52
2023-08-22T06:44:54.244Z,27.63
2023-08-22T06:47:22.027Z,27.63
2023-08-22T06:49:48.932Z,27.50
2023-08-22T06:52:15.685Z,27.46
2023-08-22T06:54:42.461Z,27.63
2023-08-22T06:57:09.166Z,27.70
2023-08-22T06:59:35.852Z,27.90
2023-08-22T07:02:02.569Z,27.91
2023-08-22T07:04:31.274Z,27.93
2023-08-22T07:06:58.248Z,28.00
2023-08-22T07:09:25.068Z,28.07
2023-08-22T07:11:51.818Z,28.11
2023-08-22T07:14:18.552Z,28.15
2023-08-22T07:16:45.328Z,28.24
2023-08-22T07:19:12.074Z,28.22
2023-08-22T07:21:38.823Z,28.31
2023-08-22T07:24:05.913Z,28.48
2023-08-22T07:26:32.631Z,28.65
2023-08-22T07:29:00.168Z,28.60
2023-08-22T07:31:26.971Z,28.75
2023-08-22T07:33:53.890Z,29.00
2023-08-22T07:36:22.585Z,29.18
2023-08-22T07:38:49.317Z,29.21
2023-08-22T07:41:16.184Z,29.31
2023-08-22T07:43:42.924Z,29.50
2023-08-22T07:46:09.756Z,29.43
2023-08-22T07:48:36.519Z,29.39
2023-08-22T07:51:03.251Z,29.44
2023-08-22T07:53:30.113Z,29.43
2023-08-22T07:55:56.846Z,29.47
2023-08-22T07:58:23.608Z,29.64
2023-08-22T08:00:50.474Z,29.71
2023-08-22T08:03:17.509Z,29.76
2023-08-22T08:05:44.330Z,29.93
2023-08-22T08:08:11.084Z,29.95
2023-08-22T08:10:38.016Z,30.16
2023-08-22T08:13:04.860Z,30.22
2023-08-22T08:15:31.696Z,30.60
2023-08-22T08:18:00.541Z,31.05
2023-08-22T08:20:27.320Z,31.35
2023-08-22T08:22:53.991Z,31.47
2023-08-22T08:25:20.743Z,31.46
2023-08-22T08:27:50.947Z,31.46
2023-08-22T08:30:18.056Z,31.45
2023-08-22T08:32:45.320Z,31.45
2023-08-22T08:35:12.485Z,31.32
2023-08-22T08:37:39.213Z,31.08
2023-08-22T08:40:09.731Z,30.58
2023-08-22T08:42:37.782Z,30.54
2023-08-22T08:45:08.180Z,30.68
2023-08-22T08:47:35.117Z,30.60
2023-08-22T08:50:02.252Z,30.37
2023-08-22T08:52:29.007Z,30.34
2023-08-22T08:54:55.715Z,29.98
2023-08-22T08:57:23.272Z,30.02
2023-08-22T08:59:49.915Z,30.43
2023-08-22T09:02:17.513Z,30.54
2023-08-22T09:04:44.437Z,30.77
2023-08-22T09:07:11.246Z,30.89
2023-08-22T09:09:37.953Z,31.19
2023-08-22T09:12:07.152Z,30.82
2023-08-22T09:14:33.997Z,30.29
2023-08-22T09:17:02.354Z,30.58
2023-08-22T09:19:33.481Z,31.18
2023-08-22T09:22:04.593Z,31.40
2023-08-22T09:24:31.975Z,31.69
2023-08-22T09:26:59.151Z,31.47
2023-08-22T09:29:35.015Z,31.50
2023-08-22T09:32:05.921Z,31.77
2023-08-22T09:34:33.641Z,32.04
2023-08-22T09:37:00.624Z,32.10
2023-08-22T09:39:27.649Z,31.97
2023-08-22T09:41:58.608Z,31.98
2023-08-22T09:44:27.013Z,31.87
2023-08-22T09:46:55.191Z,31.64
2023-08-22T09:49:22.560Z,31.59
2023-08-22T09:51:50.849Z,31.51
2023-08-22T09:54:17.906Z,31.21
2023-08-22T09:56:44.971Z,31.12
2023-08-22T09:59:17.802Z,31.15
2023-08-22T10:01:44.677Z,31.02
2023-08-22T10:04:12.032Z,30.94
2023-08-22T10:06:46.408Z,30.84
2023-08-22T10:09:14.412Z,30.60
2023-08-22T10:11:55.620Z,30.53
2023-08-22T10:14:37.474Z,30.61
2023-08-22T10:17:05.207Z,30.94
2023-08-22T10:19:32.067Z,31.23
2023-08-22T10:22:09.140Z,31.37
2023-08-22T10:24:36.695Z,31.33
2023-08-22T10:27:13.568Z,31.11
2023-08-22T10:29:48.084Z,30.81
2023-08-22T10:32:14.775Z,30.58
2023-08-22T10:34:41.770Z,30.67
2023-08-22T10:37:21.260Z,30.75
2023-08-22T10:39:48.915Z,30.71
2023-08-22T10:42:22.794Z,30.61
2023-08-22T10:44:50.779Z,30.67
2023-08-22T10:47:21.136Z,30.85
2023-08-22T10:50:13.025Z,31.02
2023-08-22T10:52:42.594Z,31.09
2023-08-22T10:55:13.587Z,31.11
2023-08-22T10:57:42.540Z,30.92
2023-08-22T11:00:32.391Z,30.56
2023-08-22T11:02:59.564Z,30.27
2023-08-22T11:05:28.332Z,30.36
2023-08-22T11:07:55.271Z,30.58
2023-08-22T11:10:23.167Z,30.88
2023-08-22T11:12:50.789Z,31.15
2023-08-22T11:15:18.410Z,31.43
2023-08-22T11:17:48.273Z,31.73
2023-08-22T11:20:16.230Z,31.98
2023-08-22T11:22:44.361Z,32.11
2023-08-22T11:25:14.558Z,32.11
2023-08-22T11:27:41.712Z,32.17
2023-08-22T11:30:09.625Z,32.15
2023-08-22T11:32:38.001Z,32.15
2023-08-22T11:35:06.436Z,32.10
2023-08-22T11:37:35.061Z,31.95
2023-08-22T11:40:02.007Z,31.70
2023-08-22T11:42:31.930Z,31.69
2023-08-22T11:45:04.764Z,31.66
2023-08-22T11:47:51.541Z,31.60
2023-08-22T11:50:18.317Z,31.47
2023-08-22T11:52:45.996Z,31.19
2023-08-22T11:55:13.716Z,30.77
2023-08-22T11:57:41.849Z,30.48
2023-08-22T12:00:12.276Z,30.51
2023-08-22T12:02:43.399Z,30.68
2023-08-22T12:05:10.369Z,30.84
2023-08-22T12:07:44.235Z,31.09
2023-08-22T12:10:13.945Z,31.14
2023-08-22T12:12:40.770Z,31.25
2023-08-22T12:15:07.865Z,31.23
2023-08-22T12:17:34.693Z,31.15
2023-08-22T12:20:02.066Z,30.91
2023-08-22T12:22:28.780Z,30.85
2023-08-22T12:24:55.619Z,30.95
2023-08-22T12:27:22.644Z,30.95
2023-08-22T12:29:49.562Z,30.95
2023-08-22T12:32:16.325Z,30.91
2023-08-22T12:34:43.082Z,30.92
2023-08-22T12:37:09.865Z,30.99
2023-08-22T12:39:36.653Z,30.99
2023-08-22T12:42:03.775Z,31.11
2023-08-22T12:44:32.794Z,31.14
2023-08-22T12:47:00.796Z,31.26
2023-08-22T12:49:27.550Z,31.21
2023-08-22T12:51:54.345Z,31.19
2023-08-22T12:54:21.032Z,31.21
2023-08-22T12:56:47.868Z,31.09
2023-08-22T12:59:14.575Z,30.85
2023-08-22T13:01:41.721Z,30.64
2023-08-22T13:04:14.022Z,30.34
2023-08-22T13:06:41.169Z,30.27
2023-08-22T13:09:11.713Z,30.41
2023-08-22T13:11:42.223Z,30.57
2023-08-22T13:14:10.966Z,30.70
2023-08-22T13:16:39.867Z,30.68
2023-08-22T13:19:07.085Z,30.68
2023-08-22T13:21:34.962Z,30.71
2023-08-22T13:24:02.006Z,30.72
2023-08-22T13:26:30.163Z,30.79
2023-08-22T13:28:56.934Z,30.79
2023-08-22T13:31:23.747Z,30.81
2023-08-22T13:33:50.504Z,30.77
2023-08-22T13:36:17.302Z,30.67
2023-08-22T13:38:44.019Z,30.36
2023-08-22T13:41:10.785Z,30.20
2023-08-22T13:43:39.984Z,30.05
2023-08-22T13:46:07.568Z,29.95
2023-08-22T13:48:34.780Z,29.99
2023-08-22T13:51:01.524Z,30.10
2023-08-22T13:53:32.345Z,30.23
2023-08-22T13:55:59.463Z,30.36
2023-08-22T13:58:26.164Z,30.53
2023-08-22T14:00:52.896Z,30.67
2023-08-22T14:03:19.711Z,30.77
2023-08-22T14:05:46.660Z,30.78
2023-08-22T14:08:13.405Z,30.70
2023-08-22T14:10:40.129Z,30.50
2023-08-22T14:13:06.883Z,30.37
2023-08-22T14:15:33.594Z,30.17
2023-08-22T14:18:00.334Z,30.10
2023-08-22T14:20:27.101Z,29.99
2023-08-22T14:22:53.833Z,29.86
2023-08-22T14:25:20.568Z,29.68
2023-08-22T14:27:47.563Z,29.54
2023-08-22T14:30:14.659Z,29.38
2023-08-22T14:32:41.426Z,29.33
2023-08-22T14:35:08.492Z,29.26
2023-08-22T14:37:35.245Z,29.31
2023-08-22T14:40:02.010Z,29.45
2023-08-22T14:42:28.761Z,29.51
2023-08-22T14:44:55.469Z,29.54
2023-08-22T14:47:22.198Z,29.54
2023-08-22T14:49:48.986Z,29.54
2023-08-22T14:52:15.704Z,29.58
2023-08-22T14:54:42.425Z,29.54
2023-08-22T14:57:09.134Z,29.55
2023-08-22T14:59:35.892Z,29.55
2023-08-22T15:02:02.940Z,29.54
2023-08-22T15:04:30.026Z,29.59
2023-08-22T15:06:57.455Z,29.62
2023-08-22T15:09:24.125Z,29.58
2023-08-22T15:11:50.888Z,29.59
2023-08-22T15:14:17.600Z,29.55
2023-08-22T15:16:44.335Z,29.53
2023-08-22T15:19:12.840Z,29.44
2023-08-22T15:21:40.091Z,29.27
2023-08-22T15:24:07.064Z,29.16
2023-08-22T15:26:33.995Z,29.00
2023-08-22T15:29:00.679Z,28.79
2023-08-22T15:31:27.951Z,28.72
2023-08-22T15:33:54.743Z,28.59
2023-08-22T15:36:21.426Z,28.52
2023-08-22T15:38:48.184Z,28.48
2023-08-22T15:41:14.904Z,28.39
2023-08-22T15:43:41.611Z,28.32
2023-08-22T15:46:08.467Z,28.24
2023-08-22T15:48:35.216Z,28.18
2023-08-22T15:51:01.909Z,28.12
2023-08-22T15:53:28.639Z,28.04
2023-08-22T15:55:55.507Z,28.00
2023-08-22T15:58:22.283Z,27.94
2023-08-22T16:00:49.077Z,27.87
2023-08-22T16:03:15.997Z,27.83
2023-08-22T16:05:42.793Z,27.79
2023-08-22T16:08:09.552Z,27.76
2023-08-22T16:10:36.285Z,27.80
2023-08-22T16:13:03.057Z,27.73
2023-08-22T16:15:30.765Z,27.67
2023-08-22T16:17:58.710Z,27.66
2023-08-22T16:20:25.612Z,27.67
2023-08-22T16:22:52.268Z,27.67
2023-08-22T16:25:19.078Z,27.64
2023-08-22T16:27:45.753Z,27.59
2023-08-22T16:30:13.088Z,27.49
2023-08-22T16:32:39.776Z,27.42
2023-08-22T16:35:07.064Z,27.35
2023-08-22T16:37:33.813Z,27.32
2023-08-22T16:40:00.578Z,27.24
2023-08-22T16:42:27.388Z,27.19
2023-08-22T16:44:54.103Z,27.16
2023-08-22T16:47:21.429Z,27.11
2023-08-22T16:49:48.674Z,27.04
2023-08-22T16:52:15.445Z,26.98
2023-08-22T16:54:42.207Z,26.88
2023-08-22T16:57:09.495Z,26.74
2023-08-22T16:59:39.114Z,26.67
2023-08-22T17:02:05.926Z,26.59
2023-08-22T17:04:32.690Z,26.50
2023-08-22T17:07:00.208Z,26.41
2023-08-22T17:09:28.062Z,26.26
2023-08-22T17:11:54.981Z,26.18
2023-08-22T17:14:21.845Z,26.08
2023-08-22T17:16:48.572Z,26.01
2023-08-22T17:19:15.885Z,25.95
2023-08-22T17:21:42.696Z,25.91
2023-08-22T17:24:10.053Z,25.85
2023-08-22T17:26:36.942Z,25.78
2023-08-22T17:29:03.899Z,25.78
2023-08-22T17:31:30.779Z,25.70
2023-08-22T17:33:57.495Z,25.70
2023-08-22T17:36:24.235Z,25.67
2023-08-22T17:38:51.811Z,25.57
2023-08-22T17:41:18.660Z,25.50
2023-08-22T17:43:45.476Z,25.44
2023-08-22T17:46:14.073Z,25.37
2023-08-22T17:48:41.249Z,25.34
2023-08-22T17:51:08.090Z,25.20
2023-08-22T17:53:34.812Z,25.12
2023-08-22T17:56:01.620Z,25.00
2023-08-22T17:58:28.410Z,24.96
2023-08-22T18:00:55.139Z,24.92
2023-08-22T18:03:22.191Z,24.80
2023-08-22T18:06:00.150Z,24.79
2023-08-22T18:08:26.946Z,24.72
2023-08-22T18:10:54.278Z,24.67
2023-08-22T18:13:21.185Z,24.59
2023-08-22T18:16:08.025Z,24.54
2023-08-22T18:18:39.436Z,24.54
2023-08-22T18:21:07.966Z,24.52
2023-08-22T18:23:34.876Z,24.45
2023-08-22T18:26:09.054Z,24.42
2023-08-22T18:28:35.850Z,24.40
2023-08-22T18:31:08.537Z,24.37
2023-08-22T18:33:35.539Z,24.28
2023-08-22T18:36:02.256Z,24.21
2023-08-22T18:38:28.982Z,24.22
2023-08-22T18:40:56.045Z,24.22
2023-08-22T18:43:22.793Z,24.25
2023-08-22T18:45:49.692Z,24.18
2023-08-22T18:48:16.803Z,24.16
2023-08-22T18:50:43.595Z,24.09
2023-08-22T18:53:10.475Z,24.07
2023-08-22T18:55:37.204Z,24.01
2023-08-22T18:58:04.426Z,23.96
2023-08-22T19:00:31.291Z,23.90
2023-08-22T19:02:58.498Z,23.84
2023-08-22T19:05:25.336Z,23.82
2023-08-22T19:07:53.123Z,23.77
2023-08-22T19:10:20.091Z,23.72
2023-08-22T19:12:46.903Z,23.72
2023-08-22T19:15:13.609Z,23.70
2023-08-22T19:17:40.612Z,23.65
2023-08-22T19:20:07.751Z,23.62
2023-08-22T19:22:35.322Z,23.66
2023-08-22T19:25:02.222Z,23.65
2023-08-22T19:27:29.766Z,23.66
2023-08-22T19:29:56.646Z,23.63
2023-08-22T19:32:36.667Z,23.63
2023-08-22T19:35:09.257Z,23.65
2023-08-22T19:37:35.960Z,23.66
2023-08-22T19:40:02.699Z,23.62
2023-08-22T19:42:29.418Z,23.62
2023-08-22T19:44:56.334Z,23.62
2023-08-22T19:47:23.460Z,23.63
2023-08-22T19:49:50.978Z,23.65
2023-08-22T19:52:17.998Z,23.70
2023-08-22T19:54:44.972Z,23.69
2023-08-22T19:57:11.712Z,23.70
2023-08-22T19:59:38.575Z,23.72
2023-08-22T20:02:05.875Z,23.72
2023-08-22T20:04:32.735Z,23.72
2023-08-22T20:06:59.486Z,23.74
2023-08-22T20:09:26.240Z,23.77
2023-08-22T20:11:52.972Z,23.84
2023-08-22T20:14:19.706Z,23.83
2023-08-22T20:16:46.455Z,23.89
2023-08-22T20:19:13.512Z,23.93
2023-08-22T20:21:40.194Z,23.94
2023-08-22T20:24:06.914Z,23.96
2023-08-22T20:26:40.304Z,24.01
2023-08-22T20:29:08.972Z,24.01
2023-08-22T20:31:36.696Z,24.07
2023-08-22T20:34:03.573Z,24.07
2023-08-22T20:36:30.258Z,24.09
2023-08-22T20:39:00.643Z,24.07
2023-08-22T20:41:29.189Z,24.10
2023-08-22T20:43:57.193Z,24.10
2023-08-22T20:46:24.061Z,24.11
2023-08-22T20:48:52.184Z,24.09
2023-08-22T20:51:18.946Z,24.04
2023-08-22T20:53:45.683Z,24.04
2023-08-22T20:56:12.471Z,24.03
2023-08-22T20:58:39.159Z,24.04
2023-08-22T21:01:05.953Z,24.03
2023-08-22T21:03:32.768Z,24.03
2023-08-22T21:05:59.524Z,24.01
2023-08-22T21:08:26.440Z,23.96
2023-08-22T21:10:53.190Z,23.96
2023-08-22T21:13:19.836Z,23.94
2023-08-22T21:15:46.568Z,23.97
2023-08-22T21:18:13.428Z,23.99
2023-08-22T21:20:40.244Z,23.99
2023-08-22T21:23:10.059Z,23.94
2023-08-22T21:25:37.340Z,23.92
2023-08-22T21:28:04.263Z,23.97
2023-08-22T21:30:31.053Z,23.93
2023-08-22T21:32:57.838Z,23.93
2023-08-22T21:35:24.898Z,23.92
2023-08-22T21:37:51.668Z,23.90
2023-08-22T21:40:18.407Z,23.82
2023-08-22T21:42:45.524Z,23.83
2023-08-22T21:45:15.938Z,23.86
2023-08-22T21:47:42.947Z,23.80
2023-08-22T21:50:10.095Z,23.77
2023-08-22T21:52:37.707Z,23.77
2023-08-22T21:55:05.080Z,23.76
2023-08-22T21:57:32.708Z,23.76
2023-08-22T21:59:59.398Z,23.76
2023-08-22T22:02:26.145Z,23.73
2023-08-22T22:04:52.985Z,23.72
2023-08-22T22:07:19.802Z,23.67
2023-08-22T22:09:46.577Z,23.69
2023-08-22T22:12:13.284Z,23.65
2023-08-22T22:14:40.161Z,23.63
2023-08-22T22:17:07.115Z,23.59
2023-08-22T22:19:33.930Z,23.53
2023-08-22T22:22:00.698Z,23.49
2023-08-22T22:24:27.378Z,23.48
2023-08-22T22:26:54.094Z,23.41
2023-08-22T22:29:20.900Z,23.44
2023-08-22T22:31:47.615Z,23.42
2023-08-22T22:34:14.316Z,23.39
2023-08-22T22:36:41.062Z,23.34
2023-08-22T22:39:07.804Z,23.29
2023-08-22T22:41:34.880Z,23.24
2023-08-22T22:44:01.603Z,23.22
2023-08-22T22:46:28.371Z,23.18
2023-08-22T22:48:55.082Z,23.15
2023-08-22T22:51:21.815Z,23.10
2023-08-22T22:53:48.574Z,23.05
2023-08-22T22:56:15.371Z,23.01
2023-08-22T22:58:42.054Z,22.93
2023-08-22T23:01:09.593Z,22.90
2023-08-22T23:03:36.615Z,22.83
2023-08-22T23:06:09.787Z,22.78
2023-08-22T23:08:36.652Z,22.76
2023-08-22T23:11:05.088Z,22.70
2023-08-22T23:13:35.862Z,22.64
2023-08-22T23:16:02.584Z,22.61
2023-08-22T23:18:29.347Z,22.55
2023-08-22T23:20:56.129Z,22.49
2023-08-22T23:23:22.829Z,22.43
2023-08-22T23:25:52.634Z,22.42
2023-08-22T23:28:19.377Z,22.38
2023-08-22T23:30:46.113Z,22.33
2023-08-22T23:33:13.533Z,22.28
2023-08-22T23:35:40.430Z,22.22
2023-08-22T23:38:08.601Z,22.18
2023-08-22T23:40:35.805Z,22.13
2023-08-22T23:43:02.620Z,22.05
2023-08-22T23:45:31.311Z,22.02
2023-08-22T23:47:58.462Z,22.00
2023-08-22T23:50:25.308Z,21.92
2023-08-22T23:52:51.969Z,21.90
2023-08-22T23:55:21.775Z,21.87
2023-08-22T23:57:50.016Z,21.85
